Time;durP1;ratioP1;P1;durP2;ratioP2;P2;SDS_P1;SDS_P2;PMS_P1;PMS_P2;Temp;Humidity;BMP_temperature;BMP_pressure;BME280_temperature;BME280_humidity;BME280_pressure;Samples;Min_cycle;Max_cycle;Signal;HPM_P1;HPM_P2
2021/06/16 00:00:13;;;;;;;12.05;5.50;;;;;;;;;;4986516;28;20501;-68
2021/06/16 00:02:40;;;;;;;14.55;5.40;;;;;;;;;;4987288;28;20040;-68
2021/06/16 00:05:07;;;;;;;19.98;6.13;;;;;;;;;;4986168;28;20462;-68
2021/06/16 00:07:33;;;;;;;17.80;6.63;;;;;;;;;;4985563;28;20034;-68
2021/06/16 00:09:59;;;;;;;17.20;7.95;;;;;;;;;;4984495;28;20065;-68
2021/06/16 00:12:26;;;;;;;13.82;6.07;;;;;;;;;;4987894;28;20027;-68
2021/06/16 00:14:53;;;;;;;22.38;6.93;;;;;;;;;;4986937;28;20022;-68
2021/06/16 00:17:19;;;;;;;15.52;6.18;;;;;;;;;;4990039;28;20034;-68
2021/06/16 00:19:45;;;;;;;16.67;7.68;;;;;;;;;;4985046;28;20100;-68
2021/06/16 00:22:11;;;;;;;12.02;6.35;;;;;;;;;;4986301;28;20087;-68
2021/06/16 00:24:38;;;;;;;19.73;7.70;;;;;;;;;;4986794;28;20042;-68
2021/06/16 00:27:04;;;;;;;15.43;7.75;;;;;;;;;;4985794;28;20014;-68
2021/06/16 00:29:30;;;;;;;14.77;5.88;;;;;;;;;;4985856;28;20041;-68
2021/06/16 00:31:57;;;;;;;24.33;6.75;;;;;;;;;;4987756;28;20082;-68
2021/06/16 00:34:23;;;;;;;15.40;7.88;;;;;;;;;;4987329;28;20102;-68
2021/06/16 00:36:49;;;;;;;18.40;6.63;;;;;;;;;;4987320;28;20106;-68
2021/06/16 00:39:15;;;;;;;12.55;6.93;;;;;;;;;;4986467;28;20109;-68
2021/06/16 00:41:44;;;;;;;12.45;6.15;;;;;;;;;;4990982;28;20054;-68
2021/06/16 00:44:10;;;;;;;15.15;5.72;;;;;;;;;;4986596;28;20443;-68
2021/06/16 00:46:36;;;;;;;16.70;6.95;;;;;;;;;;4986759;28;20532;-68
2021/06/16 00:49:02;;;;;;;10.85;4.78;;;;;;;;;;4983682;28;20117;-68
2021/06/16 00:51:28;;;;;;;16.13;6.25;;;;;;;;;;4986741;28;20030;-68
2021/06/16 00:53:54;;;;;;;14.23;5.68;;;;;;;;;;4986566;28;20022;-68
2021/06/16 00:56:21;;;;;;;12.10;4.28;;;;;;;;;;4986477;28;20034;-68
2021/06/16 00:58:47;;;;;;;15.15;7.10;;;;;;;;;;4986220;28;20275;-68
2021/06/16 01:01:16;;;;;;;12.80;5.05;;;;;;;;;;4986717;28;20019;-68
2021/06/16 01:03:51;;;;;;;11.73;5.45;;;;;;;;;;4995536;28;20175;-68
2021/06/16 01:06:22;;;;;;;13.73;5.22;;;;;;;;;;4997051;28;20026;-68
2021/06/16 01:08:59;;;;;;;11.32;4.72;;;;;;;;;;4991902;28;20022;-68
2021/06/16 01:11:25;;;;;;;10.07;4.53;;;;;;;;;;4992096;28;20026;-68
2021/06/16 01:13:53;;;;;;;14.73;4.70;;;;;;;;;;4987137;28;20137;-68
2021/06/16 01:16:24;;;;;;;17.55;4.78;;;;;;;;;;4986394;28;20030;-68
2021/06/16 01:18:53;;;;;;;12.35;5.63;;;;;;;;;;4988516;28;20053;-68
2021/06/16 01:21:19;;;;;;;12.10;4.63;;;;;;;;;;4994438;28;20030;-68
2021/06/16 01:24:01;;;;;;;13.57;5.70;;;;;;;;;;4990144;28;20030;-68
2021/06/16 01:26:29;;;;;;;12.23;5.32;;;;;;;;;;4988736;28;20052;-68
2021/06/16 01:29:04;;;;;;;10.43;4.60;;;;;;;;;;4989522;28;20436;-68
2021/06/16 01:31:31;;;;;;;11.45;5.43;;;;;;;;;;4989323;28;20019;-68
2021/06/16 01:33:57;;;;;;;10.77;4.68;;;;;;;;;;4989914;28;20030;-68
2021/06/16 01:36:25;;;;;;;13.25;5.82;;;;;;;;;;4988223;28;20029;-68
2021/06/16 01:38:52;;;;;;;8.77;4.65;;;;;;;;;;4989739;28;20035;-68
2021/06/16 01:41:18;;;;;;;8.80;4.68;;;;;;;;;;4992375;28;20064;-68
2021/06/16 01:43:46;;;;;;;12.63;4.85;;;;;;;;;;4991814;28;20023;-68
2021/06/16 01:46:12;;;;;;;10.70;4.55;;;;;;;;;;4993162;28;20036;-68
2021/06/16 01:48:40;;;;;;;13.73;4.82;;;;;;;;;;4995423;28;20624;-68
2021/06/16 01:51:07;;;;;;;10.45;4.13;;;;;;;;;;4992394;28;20019;-68
2021/06/16 01:53:33;;;;;;;12.13;4.68;;;;;;;;;;4989166;28;20022;-68
2021/06/16 01:56:00;;;;;;;10.50;4.25;;;;;;;;;;4991278;28;20031;-68
2021/06/16 01:58:26;;;;;;;10.80;4.57;;;;;;;;;;4989149;28;20042;-69
2021/06/16 02:00:54;;;;;;;10.88;5.63;;;;;;;;;;4990113;28;20034;-68
2021/06/16 02:03:21;;;;;;;17.63;6.65;;;;;;;;;;5000928;28;20082;-68
2021/06/16 02:05:47;;;;;;;11.57;4.75;;;;;;;;;;4989374;28;20132;-68
2021/06/16 02:08:15;;;;;;;15.25;5.75;;;;;;;;;;4989255;28;20022;-69
2021/06/16 02:10:45;;;;;;;16.35;5.70;;;;;;;;;;4987828;28;20031;-68
2021/06/16 02:13:12;;;;;;;19.23;8.07;;;;;;;;;;4990691;28;20031;-68
2021/06/16 02:15:40;;;;;;;14.90;6.22;;;;;;;;;;4988402;28;20042;-68
2021/06/16 02:18:06;;;;;;;13.77;6.22;;;;;;;;;;4990201;28;20030;-68
2021/06/16 02:20:33;;;;;;;11.20;5.68;;;;;;;;;;4989113;28;20076;-68
2021/06/16 02:22:59;;;;;;;13.77;6.18;;;;;;;;;;4991386;28;20030;-68
2021/06/16 02:25:25;;;;;;;14.68;5.82;;;;;;;;;;4987766;28;20026;-68
2021/06/16 02:27:52;;;;;;;15.85;6.93;;;;;;;;;;4990838;28;20033;-68
2021/06/16 02:30:18;;;;;;;11.68;5.22;;;;;;;;;;4988264;28;20038;-68
2021/06/16 02:32:45;;;;;;;14.75;6.97;;;;;;;;;;4992507;28;20025;-68
2021/06/16 02:35:11;;;;;;;16.10;6.20;;;;;;;;;;4988882;28;20034;-68
2021/06/16 02:37:44;;;;;;;12.57;6.10;;;;;;;;;;4991552;28;20131;-68
2021/06/16 02:40:13;;;;;;;22.20;8.15;;;;;;;;;;4987753;28;20651;-68
2021/06/16 02:42:40;;;;;;;13.82;7.60;;;;;;;;;;4991027;28;20231;-68
2021/06/16 02:45:07;;;;;;;14.98;6.88;;;;;;;;;;4994023;28;20023;-68
2021/06/16 02:47:33;;;;;;;18.80;7.38;;;;;;;;;;4988550;28;20525;-68
2021/06/16 02:50:01;;;;;;;15.27;7.43;;;;;;;;;;4988919;28;20087;-68
2021/06/16 02:52:28;;;;;;;16.17;6.22;;;;;;;;;;4989184;28;20026;-68
2021/06/16 02:55:02;;;;;;;16.50;7.22;;;;;;;;;;4991244;28;20030;-68
2021/06/16 02:57:29;;;;;;;17.40;6.72;;;;;;;;;;4989894;28;20056;-68
2021/06/16 02:59:56;;;;;;;17.17;6.90;;;;;;;;;;4988948;28;20124;-69
2021/06/16 03:02:24;;;;;;;18.08;8.00;;;;;;;;;;4988460;28;20034;-68
2021/06/16 03:04:50;;;;;;;15.80;5.93;;;;;;;;;;4988165;28;20041;-68
2021/06/16 03:07:17;;;;;;;13.85;6.63;;;;;;;;;;4986520;28;20030;-68
2021/06/16 03:09:44;;;;;;;16.17;7.07;;;;;;;;;;4988605;28;20478;-68
2021/06/16 03:12:11;;;;;;;15.63;8.20;;;;;;;;;;4985612;28;20026;-68
2021/06/16 03:14:37;;;;;;;20.10;8.10;;;;;;;;;;4990732;28;20084;-68
2021/06/16 03:17:04;;;;;;;18.00;8.23;;;;;;;;;;4988838;28;20079;-68
2021/06/16 03:19:30;;;;;;;15.98;7.55;;;;;;;;;;4989215;28;20023;-68
2021/06/16 03:21:58;;;;;;;19.42;7.63;;;;;;;;;;4988399;28;20113;-68
2021/06/16 03:24:24;;;;;;;15.32;7.60;;;;;;;;;;4993801;28;20050;-68
2021/06/16 03:26:51;;;;;;;13.52;6.50;;;;;;;;;;4987175;28;20030;-68
2021/06/16 03:29:19;;;;;;;17.17;7.78;;;;;;;;;;4988918;28;20033;-68
2021/06/16 03:31:45;;;;;;;14.27;7.07;;;;;;;;;;4988456;28;20029;-68
2021/06/16 03:34:12;;;;;;;13.93;6.43;;;;;;;;;;4990066;28;20512;-68
2021/06/16 03:36:38;;;;;;;14.85;7.45;;;;;;;;;;4988072;28;20038;-68
2021/06/16 03:39:05;;;;;;;15.27;7.45;;;;;;;;;;4987356;28;20046;-68
2021/06/16 03:41:32;;;;;;;17.77;6.60;;;;;;;;;;4988576;28;20037;-68
2021/06/16 03:43:59;;;;;;;15.77;6.18;;;;;;;;;;4988181;28;20026;-68
2021/06/16 03:46:26;;;;;;;14.15;6.82;;;;;;;;;;4988725;28;20485;-68
2021/06/16 03:48:53;;;;;;;13.82;6.93;;;;;;;;;;4991326;28;20015;-68
2021/06/16 03:51:19;;;;;;;20.48;7.70;;;;;;;;;;4990297;28;20029;-68
2021/06/16 03:53:45;;;;;;;15.25;6.75;;;;;;;;;;4988692;28;20290;-68
2021/06/16 03:56:12;;;;;;;13.90;7.25;;;;;;;;;;4988478;28;20029;-68
2021/06/16 03:58:40;;;;;;;13.63;6.10;;;;;;;;;;4987647;28;20025;-68
2021/06/16 04:01:06;;;;;;;11.88;6.00;;;;;;;;;;4987939;28;20022;-68
2021/06/16 04:03:33;;;;;;;11.95;6.40;;;;;;;;;;4988264;28;20089;-68
2021/06/16 04:05:59;;;;;;;16.70;6.55;;;;;;;;;;4989657;28;20034;-68
2021/06/16 04:08:26;;;;;;;13.65;6.68;;;;;;;;;;4995863;28;20022;-68
2021/06/16 04:10:53;;;;;;;12.07;6.45;;;;;;;;;;4991695;28;20033;-68
2021/06/16 04:13:19;;;;;;;17.90;7.20;;;;;;;;;;4987686;28;20034;-68
2021/06/16 04:15:47;;;;;;;14.20;6.45;;;;;;;;;;4986965;28;20034;-68
2021/06/16 04:18:13;;;;;;;15.18;5.88;;;;;;;;;;4985154;28;20034;-68
2021/06/16 04:20:39;;;;;;;14.63;7.32;;;;;;;;;;4988601;28;20034;-68
2021/06/16 04:23:05;;;;;;;21.45;7.85;;;;;;;;;;4987066;28;20031;-68
2021/06/16 04:25:31;;;;;;;17.45;7.32;;;;;;;;;;4986907;28;20030;-68
2021/06/16 04:27:58;;;;;;;18.05;7.32;;;;;;;;;;4986891;28;20023;-68
2021/06/16 04:30:24;;;;;;;14.32;7.15;;;;;;;;;;4988800;28;20183;-68
2021/06/16 04:32:51;;;;;;;10.43;6.38;;;;;;;;;;4987520;28;20022;-68
2021/06/16 04:35:18;;;;;;;14.70;6.03;;;;;;;;;;4982691;28;20038;-68
2021/06/16 04:37:44;;;;;;;18.05;7.28;;;;;;;;;;4986428;28;20033;-68
2021/06/16 04:40:10;;;;;;;19.15;7.15;;;;;;;;;;4982863;28;20497;-68
2021/06/16 04:42:36;;;;;;;13.52;6.60;;;;;;;;;;4987871;28;20532;-68
2021/06/16 04:45:03;;;;;;;17.60;7.10;;;;;;;;;;4976683;28;20038;-68
2021/06/16 04:47:29;;;;;;;15.40;6.93;;;;;;;;;;4996746;28;20084;-68
2021/06/16 04:49:55;;;;;;;18.63;7.45;;;;;;;;;;4979973;28;20062;-68
2021/06/16 04:52:21;;;;;;;18.10;7.38;;;;;;;;;;4983000;28;20037;-68
2021/06/16 04:54:47;;;;;;;14.75;6.57;;;;;;;;;;4990956;28;20156;-68
2021/06/16 04:57:13;;;;;;;16.10;6.75;;;;;;;;;;4998269;28;20098;-68
2021/06/16 04:59:39;;;;;;;14.00;6.93;;;;;;;;;;4987587;28;20584;-68
2021/06/16 05:02:05;;;;;;;15.35;7.95;;;;;;;;;;4989560;28;20037;-69
2021/06/16 05:04:31;;;;;;;18.25;7.15;;;;;;;;;;4995688;28;20087;-68
2021/06/16 05:06:58;;;;;;;16.02;7.60;;;;;;;;;;4993402;28;20026;-68
2021/06/16 05:09:24;;;;;;;13.60;7.47;;;;;;;;;;5001852;28;20022;-68
2021/06/16 05:11:50;;;;;;;14.95;7.75;;;;;;;;;;4994373;28;20035;-68
2021/06/16 05:14:16;;;;;;;16.70;7.47;;;;;;;;;;4999195;28;20080;-68
2021/06/16 05:16:43;;;;;;;14.02;8.25;;;;;;;;;;4991875;28;20028;-68
2021/06/16 05:19:21;;;;;;;13.98;7.45;;;;;;;;;;4982457;28;20033;-68
2021/06/16 05:21:47;;;;;;;16.75;8.07;;;;;;;;;;5001892;28;20021;-68
2021/06/16 05:24:13;;;;;;;13.98;8.45;;;;;;;;;;5004906;28;20049;-68
2021/06/16 05:26:40;;;;;;;15.00;7.78;;;;;;;;;;5001591;28;20031;-68
2021/06/16 05:29:06;;;;;;;21.20;8.93;;;;;;;;;;4992382;28;20072;-68
2021/06/16 05:31:33;;;;;;;20.40;9.27;;;;;;;;;;4984158;28;20034;-68
2021/06/16 05:33:59;;;;;;;17.70;8.82;;;;;;;;;;5005573;28;20276;-68
2021/06/16 05:36:25;;;;;;;18.73;10.30;;;;;;;;;;4991516;28;20038;-68
2021/06/16 05:38:52;;;;;;;16.83;8.85;;;;;;;;;;5006059;28;20034;-68
2021/06/16 05:41:18;;;;;;;22.35;10.10;;;;;;;;;;4993850;28;20083;-68
2021/06/16 05:43:44;;;;;;;18.33;9.20;;;;;;;;;;4994720;28;20039;-68
2021/06/16 05:46:11;;;;;;;17.88;10.65;;;;;;;;;;4997199;28;20033;-68
2021/06/16 05:48:37;;;;;;;20.88;9.98;;;;;;;;;;4990164;28;20034;-68
2021/06/16 05:51:03;;;;;;;19.40;10.48;;;;;;;;;;5003271;28;20018;-68
2021/06/16 05:53:29;;;;;;;21.85;10.10;;;;;;;;;;4995926;28;20042;-68
2021/06/16 05:55:55;;;;;;;24.20;10.82;;;;;;;;;;4997312;28;20087;-68
2021/06/16 05:58:21;;;;;;;16.17;10.30;;;;;;;;;;4997128;28;20476;-68
2021/06/16 06:00:47;;;;;;;24.17;11.98;;;;;;;;;;5002489;28;20050;-68
2021/06/16 06:03:14;;;;;;;20.20;10.25;;;;;;;;;;5006136;28;20056;-68
2021/06/16 06:05:40;;;;;;;17.05;10.20;;;;;;;;;;4993137;28;20027;-68
2021/06/16 06:08:07;;;;;;;20.52;11.00;;;;;;;;;;4994133;28;20117;-68
2021/06/16 06:10:33;;;;;;;20.42;10.43;;;;;;;;;;4989252;28;20030;-68
2021/06/16 06:12:59;;;;;;;19.98;9.52;;;;;;;;;;5010093;28;20026;-68
2021/06/16 06:15:25;;;;;;;22.00;10.13;;;;;;;;;;4992174;28;20125;-68
2021/06/16 06:17:51;;;;;;;24.67;9.93;;;;;;;;;;4987458;28;20163;-68
2021/06/16 06:20:18;;;;;;;21.70;10.60;;;;;;;;;;4987298;28;20039;-68
2021/06/16 06:22:44;;;;;;;21.75;10.27;;;;;;;;;;4988675;28;20100;-67
2021/06/16 06:25:11;;;;;;;17.52;9.65;;;;;;;;;;4990883;28;20033;-70
2021/06/16 06:27:37;;;;;;;15.85;9.15;;;;;;;;;;4988461;28;20031;-67
2021/06/16 06:30:04;;;;;;;18.30;9.07;;;;;;;;;;4988763;28;20047;-68
2021/06/16 06:32:30;;;;;;;18.58;9.73;;;;;;;;;;4989357;28;20660;-68
2021/06/16 06:34:56;;;;;;;19.13;9.52;;;;;;;;;;4989700;28;20026;-68
2021/06/16 06:37:22;;;;;;;20.17;9.52;;;;;;;;;;4987978;28;20032;-68
2021/06/16 06:39:49;;;;;;;20.13;8.20;;;;;;;;;;4989859;28;20083;-68
2021/06/16 06:42:18;;;;;;;21.15;9.55;;;;;;;;;;4989910;28;20048;-68
2021/06/16 06:44:44;;;;;;;18.08;9.13;;;;;;;;;;4988186;28;20026;-69
2021/06/16 06:47:11;;;;;;;21.08;9.15;;;;;;;;;;4989071;28;20022;-68
2021/06/16 06:49:37;;;;;;;18.35;10.25;;;;;;;;;;4987578;28;20566;-68
2021/06/16 06:52:03;;;;;;;20.88;9.05;;;;;;;;;;5002822;28;20022;-68
2021/06/16 06:54:29;;;;;;;19.83;9.88;;;;;;;;;;4988615;28;20042;-68
2021/06/16 06:56:55;;;;;;;22.15;10.07;;;;;;;;;;4990748;28;20545;-68
2021/06/16 06:59:21;;;;;;;19.30;9.73;;;;;;;;;;4986879;28;20052;-68
2021/06/16 07:01:47;;;;;;;18.55;10.00;;;;;;;;;;4989405;28;20025;-68
2021/06/16 07:04:13;;;;;;;20.55;10.48;;;;;;;;;;4987879;28;20068;-68
2021/06/16 07:06:39;;;;;;;22.45;9.73;;;;;;;;;;4988682;28;20030;-67
2021/06/16 07:09:05;;;;;;;20.02;9.85;;;;;;;;;;4986750;28;20030;-68
2021/06/16 07:11:31;;;;;;;20.48;9.45;;;;;;;;;;4988375;28;20031;-69
2021/06/16 07:13:58;;;;;;;21.60;8.98;;;;;;;;;;4989494;28;20545;-68
2021/06/16 07:16:24;;;;;;;21.45;11.20;;;;;;;;;;4988585;28;20039;-68
2021/06/16 07:18:51;;;;;;;19.92;10.32;;;;;;;;;;5057898;28;20026;-68
2021/06/16 07:21:18;;;;;;;19.30;9.05;;;;;;;;;;4989463;28;20026;-68
2021/06/16 07:23:44;;;;;;;21.73;8.52;;;;;;;;;;4989305;28;20575;-69
2021/06/16 07:26:10;;;;;;;20.63;9.00;;;;;;;;;;5013373;28;20399;-68
2021/06/16 07:28:36;;;;;;;18.27;8.55;;;;;;;;;;5039450;28;20599;-68
2021/06/16 07:31:02;;;;;;;20.23;9.98;;;;;;;;;;4980048;28;20014;-68
2021/06/16 07:33:28;;;;;;;24.33;9.18;;;;;;;;;;4988174;28;20026;-68
2021/06/16 07:35:54;;;;;;;22.05;8.90;;;;;;;;;;4988114;28;20014;-69
2021/06/16 07:38:20;;;;;;;20.08;8.57;;;;;;;;;;4987911;28;20026;-68
2021/06/16 07:40:46;;;;;;;19.83;9.05;;;;;;;;;;4978568;28;20091;-68
2021/06/16 07:43:12;;;;;;;17.50;8.40;;;;;;;;;;4979450;28;20031;-68
2021/06/16 07:45:38;;;;;;;18.88;8.65;;;;;;;;;;4988645;28;20501;-68
2021/06/16 07:48:05;;;;;;;18.77;8.10;;;;;;;;;;4989152;28;20026;-68
2021/06/16 07:50:31;;;;;;;19.73;8.48;;;;;;;;;;4985532;28;20324;-68
2021/06/16 07:52:57;;;;;;;18.33;9.00;;;;;;;;;;4989261;28;20036;-68
2021/06/16 07:55:24;;;;;;;18.58;8.48;;;;;;;;;;4988812;28;20113;-68
2021/06/16 07:57:50;;;;;;;17.05;8.30;;;;;;;;;;4988816;28;20031;-68
2021/06/16 08:00:16;;;;;;;21.73;8.55;;;;;;;;;;4987829;28;20034;-68
2021/06/16 08:02:42;;;;;;;22.33;8.80;;;;;;;;;;4988441;28;20533;-68
2021/06/16 08:05:09;;;;;;;17.55;7.97;;;;;;;;;;4988861;28;20117;-68
2021/06/16 08:07:35;;;;;;;23.40;7.93;;;;;;;;;;4987193;28;20022;-68
2021/06/16 08:10:01;;;;;;;17.65;8.85;;;;;;;;;;4985938;28;20023;-68
2021/06/16 08:12:27;;;;;;;19.70;8.68;;;;;;;;;;4989379;28;20057;-68
2021/06/16 08:14:53;;;;;;;20.30;8.45;;;;;;;;;;4988981;28;20022;-68
2021/06/16 08:17:19;;;;;;;20.48;8.07;;;;;;;;;;5025887;28;20012;-68
2021/06/16 08:19:46;;;;;;;21.85;7.85;;;;;;;;;;4984432;28;20026;-68
2021/06/16 08:22:14;;;;;;;19.23;7.97;;;;;;;;;;4987184;28;20034;-68
2021/06/16 08:24:40;;;;;;;19.05;8.15;;;;;;;;;;4988789;28;20022;-68
2021/06/16 08:27:06;;;;;;;13.32;7.68;;;;;;;;;;4989002;28;20026;-68
2021/06/16 08:29:33;;;;;;;18.23;7.78;;;;;;;;;;4984442;28;20521;-68
2021/06/16 08:31:59;;;;;;;22.85;9.55;;;;;;;;;;4988250;28;20076;-68
2021/06/16 08:34:25;;;;;;;12.18;7.40;;;;;;;;;;4988075;28;20027;-68
2021/06/16 08:36:51;;;;;;;20.50;7.68;;;;;;;;;;4988268;28;20030;-68
2021/06/16 08:39:17;;;;;;;18.88;7.53;;;;;;;;;;4985496;28;20030;-68
2021/06/16 08:41:43;;;;;;;16.45;7.43;;;;;;;;;;4988340;28;20508;-68
2021/06/16 08:44:12;;;;;;;13.93;7.03;;;;;;;;;;4987309;28;20023;-68
2021/06/16 08:46:38;;;;;;;18.77;8.00;;;;;;;;;;4987548;28;20050;-68
2021/06/16 08:49:05;;;;;;;15.68;9.10;;;;;;;;;;4985460;28;20084;-68
2021/06/16 08:51:31;;;;;;;16.60;7.93;;;;;;;;;;4988335;28;20046;-68
2021/06/16 08:53:58;;;;;;;15.50;8.05;;;;;;;;;;4988312;28;20034;-68
2021/06/16 08:56:24;;;;;;;15.38;8.18;;;;;;;;;;4987601;28;20038;-68
2021/06/16 08:58:51;;;;;;;17.08;7.22;;;;;;;;;;4984250;28;20079;-68
2021/06/16 09:01:17;;;;;;;18.92;7.72;;;;;;;;;;4988117;28;20031;-68
2021/06/16 09:03:43;;;;;;;17.10;8.57;;;;;;;;;;4987805;28;20642;-68
2021/06/16 09:06:11;;;;;;;16.17;8.02;;;;;;;;;;4988010;28;20109;-68
2021/06/16 09:08:56;;;;;;;12.88;7.18;;;;;;;;;;4985109;28;20033;-68
2021/06/16 09:11:22;;;;;;;16.20;8.52;;;;;;;;;;4988515;28;20026;-68
2021/06/16 09:13:48;;;;;;;15.25;8.35;;;;;;;;;;4987273;28;20048;-68
2021/06/16 09:16:29;;;;;;;12.60;7.57;;;;;;;;;;4988006;28;20030;-68
2021/06/16 09:18:55;;;;;;;16.50;7.22;;;;;;;;;;4985457;28;20026;-68
2021/06/16 09:21:34;;;;;;;19.35;8.32;;;;;;;;;;4987744;28;20050;-68
2021/06/16 09:24:01;;;;;;;17.50;7.20;;;;;;;;;;4986014;28;20091;-68
2021/06/16 09:26:31;;;;;;;15.30;7.72;;;;;;;;;;4986320;28;20022;-68
2021/06/16 09:28:57;;;;;;;15.48;7.43;;;;;;;;;;4983803;28;20049;-67
2021/06/16 09:31:24;;;;;;;19.30;8.10;;;;;;;;;;4986633;28;20058;-67
2021/06/16 09:33:51;;;;;;;23.98;7.90;;;;;;;;;;4986452;28;20029;-68
2021/06/16 09:36:18;;;;;;;12.05;6.38;;;;;;;;;;4986197;28;20121;-67
2021/06/16 09:38:46;;;;;;;13.77;6.90;;;;;;;;;;4985266;28;20672;-68
2021/06/16 09:41:13;;;;;;;18.52;5.75;;;;;;;;;;4990519;28;20029;-69
2021/06/16 09:43:40;;;;;;;10.70;5.32;;;;;;;;;;4991014;28;20037;-67
2021/06/16 09:46:07;;;;;;;12.65;6.15;;;;;;;;;;4990672;28;20494;-68
2021/06/16 09:48:40;;;;;;;12.23;5.82;;;;;;;;;;4988749;28;20023;-67
2021/06/16 09:51:23;;;;;;;13.52;5.40;;;;;;;;;;4989897;28;20109;-67
2021/06/16 09:54:14;;;;;;;13.10;6.68;;;;;;;;;;4980757;28;20103;-68
2021/06/16 09:56:45;;;;;;;12.73;6.50;;;;;;;;;;4990768;28;20026;-67
2021/06/16 09:59:12;;;;;;;16.57;6.67;;;;;;;;;;4988572;28;20037;-68
2021/06/16 10:01:46;;;;;;;12.95;5.88;;;;;;;;;;4990884;28;20034;-68
2021/06/16 10:04:30;;;;;;;14.20;5.82;;;;;;;;;;4990117;28;20047;-67
2021/06/16 10:07:09;;;;;;;11.88;6.95;;;;;;;;;;4990600;28;20026;-67
2021/06/16 10:09:35;;;;;;;13.68;5.75;;;;;;;;;;4987781;28;20037;-67
2021/06/16 10:12:01;;;;;;;13.00;6.25;;;;;;;;;;4990522;28;20447;-67
2021/06/16 10:14:27;;;;;;;13.20;6.72;;;;;;;;;;4989588;28;20133;-67
2021/06/16 10:16:54;;;;;;;19.98;6.35;;;;;;;;;;5010699;28;20016;-67
2021/06/16 10:19:21;;;;;;;15.10;6.95;;;;;;;;;;5088700;28;20020;-68
2021/06/16 10:21:47;;;;;;;13.48;6.53;;;;;;;;;;5001358;28;20037;-67
2021/06/16 10:24:13;;;;;;;17.63;8.38;;;;;;;;;;4990550;28;20031;-67
2021/06/16 10:26:39;;;;;;;14.10;6.90;;;;;;;;;;4990181;28;20035;-67
2021/06/16 10:29:10;;;;;;;15.27;6.88;;;;;;;;;;4986164;28;20520;-67
2021/06/16 10:31:40;;;;;;;16.48;7.13;;;;;;;;;;4990479;28;20030;-68
2021/06/16 10:34:08;;;;;;;12.70;6.43;;;;;;;;;;4989795;28;20133;-68
2021/06/16 10:36:36;;;;;;;14.68;6.97;;;;;;;;;;4985091;28;20030;-68
2021/06/16 10:39:02;;;;;;;16.17;6.57;;;;;;;;;;4976337;28;20057;-68
2021/06/16 10:41:38;;;;;;;12.77;7.13;;;;;;;;;;4990161;28;20050;-68
2021/06/16 10:44:10;;;;;;;16.15;5.57;;;;;;;;;;4990261;28;20200;-68
2021/06/16 10:46:53;;;;;;;13.45;5.75;;;;;;;;;;4989486;28;20083;-67
2021/06/16 10:49:38;;;;;;;11.95;5.00;;;;;;;;;;4985301;28;20015;-67
2021/06/16 10:52:04;;;;;;;10.73;4.60;;;;;;;;;;4987973;28;20160;-67
2021/06/16 10:54:31;;;;;;;8.27;4.45;;;;;;;;;;4990145;28;20026;-69
2021/06/16 10:56:59;;;;;;;13.10;5.95;;;;;;;;;;4988646;28;20029;-67
2021/06/16 10:59:40;;;;;;;12.00;5.90;;;;;;;;;;4986733;28;20557;-69
2021/06/16 11:02:06;;;;;;;13.10;6.65;;;;;;;;;;4994268;28;20501;-67
2021/06/16 11:04:32;;;;;;;10.07;5.20;;;;;;;;;;4990839;28;20493;-67
2021/06/16 11:06:59;;;;;;;11.68;5.63;;;;;;;;;;4988977;28;20098;-67
2021/06/16 11:09:43;;;;;;;13.65;6.50;;;;;;;;;;4986560;28;20038;-67
2021/06/16 11:12:11;;;;;;;12.80;6.47;;;;;;;;;;4989572;28;20038;-67
2021/06/16 11:14:39;;;;;;;9.75;5.95;;;;;;;;;;4989691;28;20114;-67
2021/06/16 11:17:09;;;;;;;9.52;4.80;;;;;;;;;;5009331;28;20071;-67
2021/06/16 11:19:35;;;;;;;8.85;4.72;;;;;;;;;;4986690;28;20045;-68
2021/06/16 11:22:04;;;;;;;9.02;4.20;;;;;;;;;;4989372;28;20023;-68
2021/06/16 11:24:48;;;;;;;11.57;4.95;;;;;;;;;;4988429;28;20085;-67
2021/06/16 11:27:34;;;;;;;7.40;4.13;;;;;;;;;;4986303;28;20027;-67
2021/06/16 11:30:02;;;;;;;12.02;5.32;;;;;;;;;;5005859;28;20462;-67
2021/06/16 11:32:28;;;;;;;9.90;5.47;;;;;;;;;;4989140;28;20385;-67
2021/06/16 11:34:55;;;;;;;13.75;7.75;;;;;;;;;;4989238;28;20034;-67
2021/06/16 11:37:39;;;;;;;12.40;5.95;;;;;;;;;;4987859;28;20038;-67
2021/06/16 11:40:05;;;;;;;11.48;5.78;;;;;;;;;;4983451;28;20037;-67
2021/06/16 11:42:32;;;;;;;10.30;5.38;;;;;;;;;;4989216;28;20026;-66
2021/06/16 11:44:58;;;;;;;10.90;5.05;;;;;;;;;;4988655;28;20179;-67
2021/06/16 11:47:26;;;;;;;14.20;5.75;;;;;;;;;;4988860;28;20015;-66
2021/06/16 11:50:00;;;;;;;10.35;6.28;;;;;;;;;;4985857;28;20014;-68
2021/06/16 11:52:26;;;;;;;13.50;8.52;;;;;;;;;;4987864;28;20092;-67
2021/06/16 11:54:52;;;;;;;12.65;7.72;;;;;;;;;;4988669;28;20489;-66
2021/06/16 11:57:19;;;;;;;12.38;6.93;;;;;;;;;;4989361;28;20041;-67
2021/06/16 11:59:49;;;;;;;10.52;6.22;;;;;;;;;;4986114;28;20427;-67
2021/06/16 12:02:19;;;;;;;17.17;6.93;;;;;;;;;;4988314;28;20042;-67
2021/06/16 12:04:46;;;;;;;13.20;7.30;;;;;;;;;;4989752;28;20909;-67
2021/06/16 12:07:12;;;;;;;11.52;5.28;;;;;;;;;;4988713;28;20023;-67
2021/06/16 12:09:45;;;;;;;9.80;4.93;;;;;;;;;;4986275;28;20027;-67
2021/06/16 12:12:11;;;;;;;9.00;5.05;;;;;;;;;;4987486;28;20027;-66
2021/06/16 12:14:37;;;;;;;7.45;4.82;;;;;;;;;;4989149;28;20463;-66
2021/06/16 12:17:04;;;;;;;8.65;5.70;;;;;;;;;;4987854;28;20030;-67
2021/06/16 12:19:34;;;;;;;9.35;5.22;;;;;;;;;;4984312;28;20030;-66
2021/06/16 12:22:03;;;;;;;10.18;4.75;;;;;;;;;;4988768;28;20027;-67
2021/06/16 12:24:34;;;;;;;10.35;5.72;;;;;;;;;;4987997;28;20087;-67
2021/06/16 12:27:01;;;;;;;;;;;;;;;;;;4988019;28;20101;-66
2021/06/16 12:29:27;;;;;;;9.65;4.80;;;;;;;;;;5056788;28;19915;-67
2021/06/16 12:31:55;;;;;;;11.32;5.65;;;;;;;;;;5091122;28;20070;-67
2021/06/16 12:37:05;;;;;;;7.88;5.50;;;;;;;;;;4988252;28;20113;-67
2021/06/16 12:39:32;;;;;;;10.57;5.10;;;;;;;;;;4980073;28;20061;-67
2021/06/16 12:42:04;;;;;;;9.02;5.60;;;;;;;;;;4969124;28;20076;-66
2021/06/16 12:44:37;;;;;;;12.85;5.90;;;;;;;;;;4968954;28;20027;-66
2021/06/16 12:47:06;;;;;;;11.05;5.80;;;;;;;;;;4971610;28;20049;-66
2021/06/16 12:49:35;;;;;;;11.05;6.28;;;;;;;;;;4987869;28;20030;-67
2021/06/16 12:52:04;;;;;;;14.43;6.32;;;;;;;;;;5062690;28;20535;-66
2021/06/16 12:54:48;;;;;;;10.38;6.18;;;;;;;;;;4988036;28;20034;-67
2021/06/16 12:57:14;;;;;;;10.93;5.57;;;;;;;;;;4968572;28;20030;-66
2021/06/16 12:59:44;;;;;;;11.68;5.30;;;;;;;;;;4974535;28;20038;-67
2021/06/16 13:02:12;;;;;;;10.37;5.50;;;;;;;;;;5028708;28;20044;-67
2021/06/16 13:04:48;;;;;;;10.55;6.13;;;;;;;;;;4988091;28;20370;-66
2021/06/16 13:07:15;;;;;;;11.18;6.03;;;;;;;;;;4985301;28;20026;-66
2021/06/16 13:09:41;;;;;;;9.50;5.55;;;;;;;;;;4980468;28;20493;-66
2021/06/16 13:12:08;;;;;;;11.95;5.82;;;;;;;;;;4988217;28;20037;-67
2021/06/16 13:14:41;;;;;;;9.88;5.40;;;;;;;;;;4989501;28;20273;-67
2021/06/16 13:17:08;;;;;;;12.93;6.85;;;;;;;;;;4992291;28;20089;-67
2021/06/16 13:19:53;;;;;;;10.73;6.25;;;;;;;;;;4987816;28;20132;-66
2021/06/16 13:22:30;;;;;;;8.93;5.80;;;;;;;;;;4984578;28;20531;-67
2021/06/16 13:24:59;;;;;;;10.93;6.50;;;;;;;;;;4990035;28;20026;-66
2021/06/16 13:27:25;;;;;;;10.50;5.95;;;;;;;;;;4985160;28;20081;-66
2021/06/16 13:29:58;;;;;;;12.80;6.18;;;;;;;;;;5000522;28;20034;-67
2021/06/16 13:32:25;;;;;;;13.13;7.57;;;;;;;;;;4989658;28;20559;-66
2021/06/16 13:34:51;;;;;;;11.63;7.47;;;;;;;;;;4990776;28;20033;-67
2021/06/16 13:37:17;;;;;;;9.35;5.35;;;;;;;;;;4989677;28;20027;-67
2021/06/16 13:39:43;;;;;;;10.63;6.22;;;;;;;;;;4986484;28;20563;-66
2021/06/16 13:42:19;;;;;;;9.82;5.80;;;;;;;;;;4990605;28;20443;-67
2021/06/16 13:44:45;;;;;;;14.27;5.82;;;;;;;;;;4984452;28;20113;-67
2021/06/16 13:47:11;;;;;;;11.65;5.28;;;;;;;;;;4989422;28;20019;-66
2021/06/16 13:49:37;;;;;;;9.82;5.70;;;;;;;;;;4981893;28;20031;-66
2021/06/16 13:52:03;;;;;;;10.20;5.78;;;;;;;;;;4983907;28;20507;-66
2021/06/16 13:54:29;;;;;;;11.95;6.78;;;;;;;;;;4985746;28;20010;-66
2021/06/16 13:56:56;;;;;;;11.90;6.47;;;;;;;;;;4990197;28;20023;-66
2021/06/16 13:59:22;;;;;;;9.48;5.68;;;;;;;;;;4979637;28;20436;-67
2021/06/16 14:01:48;;;;;;;11.15;6.57;;;;;;;;;;4988656;28;20037;-67
2021/06/16 14:04:14;;;;;;;12.32;6.15;;;;;;;;;;4986814;28;20066;-67
2021/06/16 14:06:40;;;;;;;7.65;5.40;;;;;;;;;;4989596;28;20022;-66
2021/06/16 14:09:10;;;;;;;9.13;6.05;;;;;;;;;;4986946;28;20033;-66
2021/06/16 14:11:36;;;;;;;7.53;5.18;;;;;;;;;;4990177;28;20030;-66
2021/06/16 14:14:03;;;;;;;8.95;5.70;;;;;;;;;;4988049;28;20097;-66
2021/06/16 14:16:29;;;;;;;12.20;6.03;;;;;;;;;;4988312;28;21021;-67
2021/06/16 14:18:55;;;;;;;14.90;6.47;;;;;;;;;;4983812;28;20039;-67
2021/06/16 14:21:21;;;;;;;11.70;6.90;;;;;;;;;;4987227;28;20022;-67
2021/06/16 14:23:47;;;;;;;10.25;5.82;;;;;;;;;;4983846;28;20030;-67
2021/06/16 14:26:13;;;;;;;11.88;6.57;;;;;;;;;;5006242;28;20451;-66
2021/06/16 14:28:39;;;;;;;9.98;5.93;;;;;;;;;;4979007;28;20536;-66
2021/06/16 14:31:06;;;;;;;12.55;5.88;;;;;;;;;;4987998;28;20075;-67
2021/06/16 14:33:33;;;;;;;8.80;6.22;;;;;;;;;;4984979;28;20026;-67
2021/06/16 14:36:00;;;;;;;11.90;6.63;;;;;;;;;;4987029;28;20038;-69